Time;durP1;ratioP1;P1;durP2;ratioP2;P2;SDS_P1;SDS_P2;PMS_P1;PMS_P2;Temp;Humidity;BMP_temperature;BMP_pressure;BME280_temperature;BME280_humidity;BME280_pressure;Samples;Min_cycle;Max_cycle;Signal;HPM_P1;HPM_P2
2022/06/13 00:00:00;;;;;;;;;;;;;;;19.56;49.74;101417.91;5026973;28;19928;-54
2022/06/13 00:02:25;;;;;;;;;;;;;;;19.50;49.86;101419.28;5020303;28;19916;-51
2022/06/13 00:04:51;;;;;;;;;;;;;;;19.43;50.04;101421.63;5021964;28;19948;-52
2022/06/13 00:07:16;;;;;;;;;;;;;;;19.36;50.42;101416.94;5028742;28;19971;-53
2022/06/13 00:09:41;;;;;;;;;;;;;;;19.31;50.29;101415.50;5023976;28;19921;-52
2022/06/13 00:12:07;;;;;;;;;;;;;;;19.28;50.52;101415.75;5028033;28;20067;-53
2022/06/13 00:14:32;;;;;;;;;;;;;;;19.27;50.39;101410.53;5029034;28;19924;-51
2022/06/13 00:16:57;;;;;;;;;;;;;;;19.29;50.54;101416.56;5020776;28;19921;-50
2022/06/13 00:19:23;;;;;;;;;;;;;;;19.32;50.50;101419.84;5028352;28;19960;-51
2022/06/13 00:21:48;;;;;;;;;;;;;;;19.29;50.20;101411.25;5015824;28;19921;-52
2022/06/13 00:24:13;;;;;;;;;;;;;;;19.28;50.27;101412.25;5025959;28;19975;-53
2022/06/13 00:26:39;;;;;;;;;;;;;;;19.23;50.27;101406.44;5026909;28;19922;-54
2022/06/13 00:29:04;;;;;;;;;;;;;;;19.14;50.54;101400.88;5026709;28;19921;-54
2022/06/13 00:31:30;;;;;;;;;;;;;;;19.14;50.64;101392.88;5028450;28;20323;-53
2022/06/13 00:33:55;;;;;;;;;;;;;;;19.12;50.50;101400.19;5024042;28;20031;-54
2022/06/13 00:36:23;;;;;;;;;;;;;;;19.11;50.27;101398.50;5023812;28;19959;-52
2022/06/13 00:38:52;;;;;;;;;;;;;;;19.10;50.25;101403.94;5027963;28;19936;-52
2022/06/13 00:41:23;;;;;;;;;;;;;;;19.11;50.13;101402.97;5025739;28;20387;-53
2022/06/13 00:43:49;;;;;;;;;;;;;;;19.08;50.02;101409.41;5027433;28;19927;-53
2022/06/13 00:46:17;;;;;;;;;;;;;;;19.07;49.85;101407.72;5025556;28;19913;-52
2022/06/13 00:48:43;;;;;;;;;;;;;;;19.07;49.89;101399.72;5027070;28;19928;-53
2022/06/13 00:51:08;;;;;;;;;;;;;;;19.03;49.91;101407.13;5026437;28;20133;-53
2022/06/13 00:53:35;;;;;;;;;;;;;;;19.05;49.79;101409.66;5026358;28;20039;-53
2022/06/13 00:56:03;;;;;;;;;;;;;;;19.04;49.67;101395.50;5027847;28;19940;-54
2022/06/13 00:58:30;;;;;;;;;;;;;;;19.04;49.62;101389.31;5019838;28;19921;-55
2022/06/13 01:00:57;;;;;;;;;;;;;;;19.04;49.71;101392.84;5024068;28;20417;-54
2022/06/13 01:03:24;;;;;;;;;;;;;;;19.07;49.66;101388.19;5022644;28;19925;-50
2022/06/13 01:05:50;;;;;;;;;;;;;;;19.07;49.63;101391.72;5020198;28;20471;-52
2022/06/13 01:08:17;;;;;;;;;;;;;;;19.11;49.24;101398.50;5032278;28;19913;-54
2022/06/13 01:13:38;;;;;;;;;;;;;;;19.21;49.10;101387.88;5025888;28;19967;-52
2022/06/13 01:16:06;;;;;;;;;;;;;;;19.24;48.80;101386.78;5024795;28;20439;-52
2022/06/13 01:18:31;;;;;;;;;;;;;;;19.24;48.65;101386.78;5023968;28;19921;-54
2022/06/13 01:21:12;;;;;;;;;;;;;;;19.23;48.70;101382.44;5026300;28;19924;-54
2022/06/13 01:23:37;;;;;;;;;;;;;;;19.21;48.87;101387.03;5025095;28;20044;-54
2022/06/13 01:26:22;;;;;;;;;;;;;;;19.18;48.66;101380.16;5022847;28;19991;-54
2022/06/13 01:28:47;;;;;;;;;;;;;;;19.14;48.48;101379.53;5026970;28;20018;-56
2022/06/13 01:31:21;;;;;;;;;;;;;;;19.09;48.62;101383.56;5028120;28;20340;-53
2022/06/13 01:34:04;;;;;;;;;;;;;;;19.04;48.81;101381.31;5028515;28;19920;-54
2022/06/13 01:36:45;;;;;;;;;;;;;;;19.11;48.52;101385.16;5030139;28;19919;-54
2022/06/13 01:39:10;;;;;;;;;;;;;;;19.16;48.43;101393.59;5022480;28;20423;-52
2022/06/13 01:42:00;;;;;;;;;;;;;;;19.17;48.51;101389.97;5026883;28;19912;-54
2022/06/13 01:44:40;;;;;;;;;;;;;;;19.15;48.51;101383.91;5023473;28;19920;-54
2022/06/13 01:47:20;;;;;;;;;;;;;;;19.08;48.42;101393.41;5023416;28;20578;-54
2022/06/13 01:49:46;;;;;;;;;;;;;;;19.03;48.73;101390.28;5023924;28;19931;-52
2022/06/13 01:52:30;;;;;;;;;;;;;;;18.94;48.80;101385.69;5027516;28;19913;-53
2022/06/13 01:55:02;;;;;;;;;;;;;;;18.93;48.87;101386.66;5018035;28;20024;-55
2022/06/13 01:57:27;;;;;;;;;;;;;;;18.91;48.83;101380.59;5025381;28;19967;-53
2022/06/13 02:00:06;;;;;;;;;;;;;;;18.96;48.81;101391.78;5032460;28;19944;-54
2022/06/13 02:02:50;;;;;;;;;;;;;;;19.07;48.65;101386.38;5012703;28;19913;-52
2022/06/13 02:05:33;;;;;;;;;;;;;;;19.25;48.47;101383.16;5024780;28;19966;-50
2022/06/13 02:08:02;;;;;;;;;;;;;;;19.38;47.98;101381.13;5025951;28;19958;-49
2022/06/13 02:10:30;;;;;;;;;;;;;;;19.44;47.82;101383.25;5021025;28;20028;-50
2022/06/13 02:13:00;;;;;;;;;;;;;;;19.48;47.80;101384.69;5026784;28;19913;-52
2022/06/13 02:15:28;;;;;;;;;;;;;;;19.48;47.71;101392.69;5026959;28;19921;-50
2022/06/13 02:18:03;;;;;;;;;;;;;;;19.43;47.97;101397.59;5027150;28;19913;-49
2022/06/13 02:20:33;;;;;;;;;;;;;;;19.39;47.91;101400.63;5031114;28;20471;-56
2022/06/13 02:23:01;;;;;;;;;;;;;;;19.38;48.04;101394.47;5043326;28;19962;-54
2022/06/13 02:25:43;;;;;;;;;;;;;;;19.34;47.76;101398.38;5027830;28;19968;-54
2022/06/13 02:28:29;;;;;;;;;;;;;;;19.25;48.01;101404.50;5030225;28;19917;-56
2022/06/13 02:30:57;;;;;;;;;;;;;;;19.24;48.15;101402.78;5024229;28;19913;-54
2022/06/13 02:33:34;;;;;;;;;;;;;;;19.26;48.00;101409.69;5024353;28;19917;-52
2022/06/13 02:36:07;;;;;;;;;;;;;;;19.37;47.93;101416.78;5019277;28;19913;-56
2022/06/13 02:38:39;;;;;;;;;;;;;;;19.34;47.80;101407.22;5025187;28;20350;-52
2022/06/13 02:41:07;;;;;;;;;;;;;;;19.30;47.94;101402.25;5022219;28;19988;-51
2022/06/13 02:43:38;;;;;;;;;;;;;;;19.18;47.92;101399.66;5027325;28;19937;-53
2022/06/13 02:46:08;;;;;;;;;;;;;;;19.11;48.16;101403.84;5009371;28;19979;-55
2022/06/13 02:48:36;;;;;;;;;;;;;;;19.14;48.17;101402.72;5023923;28;19912;-54
2022/06/13 02:51:32;;;;;;;;;;;;;;;19.19;48.15;101412.03;5041225;28;19916;-54
2022/06/13 02:54:16;;;;;;;;;;;;;;;19.28;47.87;101420.25;5025493;28;20293;-52
2022/06/13 02:59:51;;;;;;;;;;;;;;;19.12;47.90;101408.19;5028027;28;19932;-49
2022/06/13 03:02:19;;;;;;;;;;;;;;;18.99;48.32;101407.50;5026320;28;19921;-52
2022/06/13 03:04:51;;;;;;;;;;;;;;;18.97;48.51;101412.97;5030752;28;19913;-55
2022/06/13 03:07:17;;;;;;;;;;;;;;;18.99;48.47;101408.38;5029415;28;20282;-54
2022/06/13 03:09:54;;;;;;;;;;;;;;;18.92;48.56;101414.31;5032275;28;19915;-53
2022/06/13 03:12:36;;;;;;;;;;;;;;;18.82;48.86;101409.75;5033771;28;19939;-52
2022/06/13 03:15:03;;;;;;;;;;;;;;;18.71;49.13;101401.75;5032025;28;19954;-51
2022/06/13 03:17:47;;;;;;;;;;;;;;;18.64;49.44;101395.25;5032316;28;19916;-55
2022/06/13 03:20:15;;;;;;;;;;;;;;;18.63;49.60;101396.22;5028244;28;19920;-55
2022/06/13 03:22:45;;;;;;;;;;;;;;;18.67;49.63;101389.66;5029839;28;19920;-54
2022/06/13 03:25:27;;;;;;;;;;;;;;;18.71;49.60;101391.09;5036016;28;19909;-52
2022/06/13 03:28:08;;;;;;;;;;;;;;;18.67;49.62;101401.16;5032138;28;20354;-54
2022/06/13 03:30:37;;;;;;;;;;;;;;;18.67;49.53;101400.34;5035772;28;19912;-51
2022/06/13 03:35:55;;;;;;;;;;;;;;;18.51;50.08;101406.91;5026749;28;19924;-54
2022/06/13 03:38:25;;;;;;;;;;;;;;;18.49;50.07;101403.53;5024635;28;19940;-52
2022/06/13 03:40:52;;;;;;;;;;;;;;;18.51;50.11;101417.56;5027145;28;19924;-52
2022/06/13 03:43:35;;;;;;;;;;;;;;;18.50;50.14;101420.34;5024156;28;19931;-54
2022/06/13 03:46:03;;;;;;;;;;;;;;;18.43;50.32;101422.66;5030598;28;19934;-53
2022/06/13 03:48:47;;;;;;;;;;;;;;;18.33;50.49;101429.69;5022963;28;20398;-52
2022/06/13 03:51:13;;;;;;;;;;;;;;;18.24;50.62;101441.94;5024741;28;20011;-53
2022/06/13 03:53:44;;;;;;;;;;;;;;;18.22;50.78;101439.41;5026054;28;20008;-50
2022/06/13 03:56:12;;;;;;;;;;;;;;;18.23;50.84;101440.25;5026354;28;20000;-50
2022/06/13 03:58:44;;;;;;;;;;;;;;;18.22;50.96;101439.41;5030455;28;19920;-50
2022/06/13 04:01:14;;;;;;;;;;;;;;;18.23;50.77;101445.56;5016462;28;20013;-50
2022/06/13 04:03:39;;;;;;;;;;;;;;;18.22;50.95;101441.22;5015761;28;19921;-50
2022/06/13 04:06:24;;;;;;;;;;;;;;;18.18;51.10;101437.94;5025165;28;19936;-52
2022/06/13 04:08:49;;;;;;;;;;;;;;;18.20;51.00;101430.69;5020941;28;19921;-54
2022/06/13 04:11:23;;;;;;;;;;;;;;;18.26;51.05;101429.34;5019878;28;19921;-50
2022/06/13 04:14:04;;;;;;;;;;;;;;;18.39;50.92;101429.19;5024925;28;19917;-50
2022/06/13 04:16:51;;;;;;;;;;;;;;;18.53;50.79;101426.25;5025204;28;19927;-49
2022/06/13 04:19:25;;;;;;;;;;;;;;;18.64;50.53;101427.22;5026595;28;20269;-49
2022/06/13 04:21:53;;;;;;;;;;;;;;;18.68;50.57;101428.69;5018565;28;19994;-49
2022/06/13 04:24:34;;;;;;;;;;;;;;;18.72;50.48;101419.44;5020648;28;19921;-49
2022/06/13 04:27:05;;;;;;;;;;;;;;;18.78;50.23;101410.94;5023982;28;20323;-49
2022/06/13 04:29:45;;;;;;;;;;;;;;;18.86;50.22;101421.81;5026038;28;19920;-52
2022/06/13 04:32:12;;;;;;;;;;;;;;;18.97;50.11;101422.81;5021960;28;19917;-50
2022/06/13 04:34:45;;;;;;;;;;;;;;;19.03;49.98;101427.63;5021865;28;19920;-50
2022/06/13 04:37:11;;;;;;;;;;;;;;;19.09;50.06;101432.44;5024391;28;19928;-50
2022/06/13 04:39:38;;;;;;;;;;;;;;;19.11;50.07;101438.50;5025512;28;19927;-49
2022/06/13 04:42:06;;;;;;;;;;;;;;;19.12;50.05;101434.88;5024606;28;19921;-55
2022/06/13 04:44:32;;;;;;;;;;;;;;;19.08;49.95;101436.09;5026778;28;19936;-52
2022/06/13 04:46:58;;;;;;;;;;;;;;;19.00;50.13;101439.41;5019882;28;19920;-49
2022/06/13 04:49:35;;;;;;;;;;;;;;;18.96;50.19;101431.78;5027805;28;19913;-58
2022/06/13 04:52:04;;;;;;;;;;;;;;;18.93;50.20;101437.31;5026993;28;19917;-54
2022/06/13 04:54:35;;;;;;;;;;;;;;;18.89;50.33;101431.41;5029579;28;19956;-53
2022/06/13 04:57:01;;;;;;;;;;;;;;;18.83;50.57;101432.72;5024108;28;20384;-50
2022/06/13 04:59:28;;;;;;;;;;;;;;;18.77;50.66;101433.25;5028900;28;19925;-55
2022/06/13 05:01:55;;;;;;;;;;;;;;;18.78;50.82;101432.28;5021675;28;19920;-51
2022/06/13 05:04:22;;;;;;;;;;;;;;;18.77;50.81;101437.72;5027798;28;19917;-54
2022/06/13 05:06:55;;;;;;;;;;;;;;;18.66;51.12;101434.13;5037256;28;19912;-55
2022/06/13 05:09:23;;;;;;;;;;;;;;;18.58;51.48;101437.41;5024914;28;20269;-53
2022/06/13 05:12:07;;;;;;;;;;;;;;;18.58;51.32;101440.06;5021271;28;20415;-54
2022/06/13 05:14:56;;;;;;;;;;;;;;;18.53;51.58;101434.25;5032457;28;19913;-52
2022/06/13 05:17:27;;;;;;;;;;;;;;;18.48;52.00;101439.13;5031227;28;19920;-52
2022/06/13 05:20:11;;;;;;;;;;;;;;;18.51;51.87;101440.69;5026845;28;19917;-52
2022/06/13 05:22:57;;;;;;;;;;;;;;;18.53;51.83;101439.59;5020397;28;19920;-53
2022/06/13 05:25:26;;;;;;;;;;;;;;;18.50;52.12;101436.34;5029586;28;24588;-54
2022/06/13 05:27:53;;;;;;;;;;;;;;;18.44;52.45;101432.34;5027815;28;19971;-54
2022/06/13 05:30:20;;;;;;;;;;;;;;;18.38;52.53;101438.16;5029841;28;19917;-54
2022/06/13 05:32:45;;;;;;;;;;;;;;;18.37;52.57;101432.00;5026510;28;19917;-54
2022/06/13 05:35:15;;;;;;;;;;;;;;;18.40;52.54;101428.22;5027934;28;19925;-51
2022/06/13 05:37:41;;;;;;;;;;;;;;;18.43;52.76;101435.97;5055809;28;19925;-54
2022/06/13 05:40:09;;;;;;;;;;;;;;;18.47;52.51;101428.56;5030130;28;19921;-51
2022/06/13 05:42:34;;;;;;;;;;;;;;;18.47;52.65;101434.78;5027597;28;19944;-51
2022/06/13 05:44:59;;;;;;;;;;;;;;;18.43;52.85;101435.97;5031597;28;20490;-55
2022/06/13 05:47:25;;;;;;;;;;;;;;;18.36;53.19;101448.13;5027562;28;19924;-54
2022/06/13 05:49:50;;;;;;;;;;;;;;;18.32;53.31;101452.81;5027007;28;20343;-54
2022/06/13 05:52:15;;;;;;;;;;;;;;;18.32;53.35;101455.47;5029489;28;19929;-52
2022/06/13 05:54:41;;;;;;;;;;;;;;;18.30;53.38;101476.09;5026773;28;19940;-52
2022/06/13 05:57:06;;;;;;;;;;;;;;;18.23;53.51;101473.03;5026115;28;19925;-52
2022/06/13 05:59:31;;;;;;;;;;;;;;;18.16;53.76;101485.16;5019290;28;19921;-54
2022/06/13 06:01:57;;;;;;;;;;;;;;;18.13;53.48;101477.41;5021228;28;19921;-52
2022/06/13 06:04:22;;;;;;;;;;;;;;;18.10;53.61;101474.97;5024428;28;20353;-52
2022/06/13 06:06:48;;;;;;;;;;;;;;;18.08;53.56;101477.78;5019988;28;20012;-54
2022/06/13 06:09:13;;;;;;;;;;;;;;;18.09;53.51;101475.94;5027312;28;19924;-50
2022/06/13 06:11:38;;;;;;;;;;;;;;;18.09;53.23;101471.47;5023010;28;19929;-52
2022/06/13 06:14:04;;;;;;;;;;;;;;;18.13;53.11;101480.06;5006876;28;19963;-50
2022/06/13 06:16:29;;;;;;;;;;;;;;;18.10;52.69;101477.63;5010443;28;19921;-51
2022/06/13 06:18:55;;;;;;;;;;;;;;;18.04;52.54;101478.97;4998516;28;20377;-52
2022/06/13 06:21:21;;;;;;;;;;;;;;;18.03;52.24;101479.09;5012144;28;19917;-52
2022/06/13 06:23:46;;;;;;;;;;;;;;;17.99;52.08;101478.50;5022506;28;19952;-52
2022/06/13 06:26:14;;;;;;;;;;;;;;;17.98;51.91;101480.28;5018973;28;20373;-51
2022/06/13 06:28:39;;;;;;;;;;;;;;;17.96;51.24;101489.34;5026084;28;19921;-52
2022/06/13 06:31:05;;;;;;;;;;;;;;;17.95;50.75;101487.66;5021831;28;20007;-50
2022/06/13 06:33:32;;;;;;;;;;;;;;;17.89;50.42;101474.78;5022322;28;19921;-55
2022/06/13 06:35:57;;;;;;;;;;;;;;;17.89;50.45;101480.13;5022200;28;19913;-55
2022/06/13 06:38:24;;;;;;;;;;;;;;;17.86;50.22;101473.22;5026129;28;19924;-53
2022/06/13 06:40:50;;;;;;;;;;;;;;;17.90;50.32;101495.13;5021132;28;20654;-50
2022/06/13 06:43:15;;;;;;;;;;;;;;;17.95;50.08;101485.81;5027425;28;19913;-54
2022/06/13 06:45:44;;;;;;;;;;;;;;;17.98;49.73;101490.13;5030805;28;19917;-53
2022/06/13 06:48:12;;;;;;;;;;;;;;;18.04;49.16;101483.47;5029488;28;19929;-53
2022/06/13 06:50:38;;;;;;;;;;;;;;;18.07;48.70;101493.88;5026390;28;19924;-53
2022/06/13 06:53:03;;;;;;;;;;;;;;;18.05;48.76;101493.16;5030506;28;19916;-53
2022/06/13 07:01:00;;;;;;;;;;;;;;;18.15;48.32;101479.97;5016325;28;19975;-50
2022/06/13 07:03:25;;;;;;;;;;;;;;;18.22;48.51;101470.50;5022588;28;19977;-53
2022/06/13 07:05:51;;;;;;;;;;;;;;;18.33;48.11;101478.50;5027256;28;20349;-52
2022/06/13 07:08:17;;;;;;;;;;;;;;;18.41;47.88;101491.19;5024495;28;19913;-51
2022/06/13 07:10:47;;;;;;;;;;;;;;;18.42;47.52;101484.91;5020380;28;19939;-50
2022/06/13 07:13:14;;;;;;;;;;;;;;;18.41;47.08;101480.53;5024012;28;20392;-50
2022/06/13 07:15:40;;;;;;;;;;;;;;;18.40;47.22;101486.84;5024213;28;19990;-52
2022/06/13 07:18:05;;;;;;;;;;;;;;;18.43;46.83;101481.28;5018564;28;19929;-51
2022/06/13 07:20:31;;;;;;;;;;;;;;;18.49;47.02;101472.81;5024828;28;19921;-54
2022/06/13 07:22:56;;;;;;;;;;;;;;;18.63;46.91;101484.16;5024572;28;20373;-53
2022/06/13 07:25:23;;;;;;;;;;;;;;;18.62;46.36;101477.16;5027942;28;20032;-53
2022/06/13 07:27:49;;;;;;;;;;;;;;;18.62;46.28;101466.47;5021075;28;20443;-55
2022/06/13 07:30:15;;;;;;;;;;;;;;;18.64;46.41;101460.06;5036842;28;19981;-52
2022/06/13 07:32:41;;;;;;;;;;;;;;;18.67;45.78;101458.97;5033715;28;20011;-51
2022/06/13 07:35:07;;;;;;;;;;;;;;;18.63;45.87;101452.19;5025531;28;20051;-50
2022/06/13 07:40:17;;;;;;;;;;;;;;;18.58;45.85;101450.72;5030532;28;20023;-51
2022/06/13 07:42:46;;;;;;;;;;;;;;;18.66;45.73;101457.28;5033028;28;19939;-50
2022/06/13 07:45:13;;;;;;;;;;;;;;;18.72;45.10;101462.09;5033151;28;19917;-50
2022/06/13 07:47:39;;;;;;;;;;;;;;;18.76;44.94;101476.88;5025827;28;19932;-50
2022/06/13 07:50:05;;;;;;;;;;;;;;;18.71;44.34;101460.41;5025637;28;19921;-51
2022/06/13 07:52:32;;;;;;;;;;;;;;;18.70;44.26;101464.91;5025912;28;19924;-52
2022/06/13 07:54:57;;;;;;;;;;;;;;;18.69;44.03;101459.66;5026829;28;20273;-50
2022/06/13 07:57:22;;;;;;;;;;;;;;;18.72;44.02;101462.09;5032551;28;19917;-52
2022/06/13 07:59:48;;;;;;;;;;;;;;;18.71;43.09;101487.06;5029434;28;20281;-50
2022/06/13 08:02:15;;;;;;;;;;;;;;;18.69;42.98;101470.34;5027162;28;19920;-51
2022/06/13 08:04:40;;;;;;;;;;;;;;;18.73;42.82;101463.78;5034832;28;19925;-51
2022/06/13 08:07:06;;;;;;;;;;;;;;;18.77;42.53;101459.91;5031317;28;19924;-50
2022/06/13 08:09:31;;;;;;;;;;;;;;;18.77;42.08;101480.38;5029589;28;19925;-50
2022/06/13 08:11:56;;;;;;;;;;;;;;;18.73;42.39;101474.44;5030769;28;19913;-50
2022/06/13 08:14:22;;;;;;;;;;;;;;;18.73;42.55;101472.66;5031637;28;19913;-50
2022/06/13 08:16:47;;;;;;;;;;;;;;;18.82;42.97;101468.38;5034287;28;20008;-52
2022/06/13 08:19:12;;;;;;;;;;;;;;;18.98;42.81;101472.50;5030454;28;19922;-50
2022/06/13 08:21:38;;;;;;;;;;;;;;;19.09;42.74;101469.78;5027003;28;19917;-50
2022/06/13 08:24:04;;;;;;;;;;;;;;;19.19;42.65;101470.72;5033587;28;20012;-51
2022/06/13 08:26:30;;;;;;;;;;;;;;;19.24;42.47;101474.81;5026397;28;20016;-51
2022/06/13 08:28:56;;;;;;;;;;;;;;;19.31;42.47;101473.31;5028602;28;19996;-51
2022/06/13 08:31:22;;;;;;;;;;;;;;;19.36;42.34;101464.97;5030096;28;19913;-50
2022/06/13 08:33:48;;;;;;;;;;;;;;;19.39;42.33;101472.69;5032080;28;20396;-50
2022/06/13 08:36:13;;;;;;;;;;;;;;;19.49;42.27;101471.78;5038395;28;20002;-50
2022/06/13 08:38:39;;;;;;;;;;;;;;;19.55;41.74;101474.94;5036536;28;20399;-50
2022/06/13 08:41:10;;;;;;;;;;;;;;;19.60;41.73;101475.38;5032246;28;19925;-53
2022/06/13 08:43:38;;;;;;;;;;;;;;;19.61;41.35;101464.56;5031625;28;20335;-50
2022/06/13 08:46:12;;;;;;;;;;;;;;;19.61;41.25;101469.91;5029342;28;19924;-50
2022/06/13 08:48:41;;;;;;;;;;;;;;;19.62;40.99;101481.41;5023265;28;20011;-52
2022/06/13 08:51:09;;;;;;;;;;;;;;;19.57;40.58;101484.47;5030185;28;19913;-50
2022/06/13 08:53:54;;;;;;;;;;;;;;;19.52;40.47;101475.19;5041340;28;19920;-51
2022/06/13 08:56:21;;;;;;;;;;;;;;;19.54;40.35;101505.25;5025823;28;19920;-51
2022/06/13 08:58:53;;;;;;;;;;;;;;;19.53;39.94;101476.88;5034960;28;19923;-50
2022/06/13 09:01:24;;;;;;;;;;;;;;;19.54;39.97;101478.56;5024479;28;20384;-53
2022/06/13 09:03:52;;;;;;;;;;;;;;;19.57;39.94;101483.66;5028366;28;19924;-50
2022/06/13 09:06:21;;;;;;;;;;;;;;;19.57;39.73;101492.50;5024361;28;19986;-50
2022/06/13 09:08:57;;;;;;;;;;;;;;;19.62;39.54;101470.75;5032598;28;19912;-51
2022/06/13 09:11:35;;;;;;;;;;;;;;;19.68;39.27;101478.25;5026736;28;20729;-50
2022/06/13 09:14:03;;;;;;;;;;;;;;;19.73;38.75;101472.50;5018686;28;19916;-52
2022/06/13 09:16:32;;;;;;;;;;;;;;;19.76;38.81;101472.25;5020396;28;19923;-50
2022/06/13 09:18:58;;;;;;;;;;;;;;;19.71;38.12;101475.31;5020903;28;19917;-51
2022/06/13 09:21:23;;;;;;;;;;;;;;;19.69;38.22;101471.06;5018658;28;20819;-51
2022/06/13 09:23:48;;;;;;;;;;;;;;;19.72;38.54;101471.69;5023723;28;19921;-51
2022/06/13 09:26:32;;;;;;;;;;;;;;;19.82;38.56;101470.88;5024213;28;19913;-51
2022/06/13 09:29:04;;;;;;;;;;;;;;;19.88;38.05;101470.41;5029621;28;19916;-54
2022/06/13 09:31:30;;;;;;;;;;;;;;;19.87;37.84;101474.03;5028703;28;19971;-50
2022/06/13 09:34:15;;;;;;;;;;;;;;;19.90;38.20;101469.28;5036866;28;19948;-50
2022/06/13 09:36:47;;;;;;;;;;;;;;;19.94;38.16;101481.41;5027574;28;19921;-50
2022/06/13 09:39:13;;;;;;;;;;;;;;;19.97;37.89;101469.59;5035619;28;19944;-50
2022/06/13 09:41:57;;;;;;;;;;;;;;;20.00;37.82;101485.34;5029857;28;19948;-51
2022/06/13 09:44:32;;;;;;;;;;;;;;;19.96;37.58;101473.25;5028077;28;20393;-51
2022/06/13 09:47:16;;;;;;;;;;;;;;;19.91;37.22;101465.63;5033955;28;19967;-50
2022/06/13 09:49:41;;;;;;;;;;;;;;;19.88;37.26;101492.59;5026810;28;19913;-51
2022/06/13 09:52:17;;;;;;;;;;;;;;;19.82;36.87;101470.88;5036671;28;19915;-51
2022/06/13 09:54:58;;;;;;;;;;;;;;;19.77;36.73;101456.09;5030772;28;20372;-50
2022/06/13 09:57:32;;;;;;;;;;;;;;;19.77;36.66;101464.09;5027931;28;19913;-52
2022/06/13 10:00:00;;;;;;;;;;;;;;;19.76;36.54;101461.56;5026848;28;20427;-53
2022/06/13 10:02:37;;;;;;;;;;;;;;;19.76;36.75;101467.75;5029355;28;19913;-50
2022/06/13 10:05:12;;;;;;;;;;;;;;;19.80;36.75;101450.50;5032910;28;19913;-50
2022/06/13 10:07:48;;;;;;;;;;;;;;;19.86;36.61;101456.28;5027680;28;19920;-50
2022/06/13 10:10:42;;;;;;;;;;;;;;;19.88;36.40;101457.88;5025846;28;19913;-51
2022/06/13 10:13:23;;;;;;;;;;;;;;;19.94;36.45;101457.34;5025614;28;19971;-50
2022/06/13 10:15:57;;;;;;;;;;;;;;;19.97;35.79;101471.41;5035749;28;19955;-50
2022/06/13 10:18:33;;;;;;;;;;;;;;;19.94;35.95;101460.03;5034816;28;19916;-50
2022/06/13 10:21:11;;;;;;;;;;;;;;;19.97;35.81;101448.22;5034855;28;19913;-50
2022/06/13 10:23:44;;;;;;;;;;;;;;;20.03;35.91;101462.88;5028380;28;19909;-50
2022/06/13 10:26:25;;;;;;;;;;;;;;;20.04;35.83;101452.03;5032111;28;19921;-51
2022/06/13 10:28:51;;;;;;;;;;;;;;;20.06;35.64;101447.41;5022628;28;19921;-50
2022/06/13 10:31:19;;;;;;;;;;;;;;;20.09;35.32;101454.31;5029600;28;19912;-51
2022/06/13 10:33:52;;;;;;;;;;;;;;;20.07;35.34;101453.63;5029778;28;19936;-50
2022/06/13 10:36:24;;;;;;;;;;;;;;;20.04;35.15;101460.03;5035010;28;19963;-51
2022/06/13 10:38:49;;;;;;;;;;;;;;;20.02;35.15;101440.66;5031362;28;19927;-50
2022/06/13 10:41:15;;;;;;;;;;;;;;;20.07;35.46;101448.28;5031290;28;20104;-51
2022/06/13 10:43:42;;;;;;;;;;;;;;;20.17;35.39;101442.97;5029844;28;20449;-50
2022/06/13 10:46:10;;;;;;;;;;;;;;;20.27;35.58;101441.19;5030710;28;19917;-51
2022/06/13 10:48:48;;;;;;;;;;;;;;;20.34;35.36;101439.66;5030817;28;19935;-50
2022/06/13 10:51:14;;;;;;;;;;;;;;;20.41;35.26;101450.66;5027222;28;20430;-53
2022/06/13 10:53:47;;;;;;;;;;;;;;;20.37;35.14;101474.13;5036334;28;19924;-50
2022/06/13 10:56:16;;;;;;;;;;;;;;;20.29;35.39;101452.56;5034760;28;20380;-51
2022/06/13 10:58:44;;;;;;;;;;;;;;;20.32;35.66;101459.47;5027408;28;19920;-51
2022/06/13 11:01:12;;;;;;;;;;;;;;;20.33;35.89;101454.00;5035485;28;19919;-52
2022/06/13 11:03:42;;;;;;;;;;;;;;;20.38;35.75;101494.50;5033049;28;19913;-50
2022/06/13 11:06:15;;;;;;;;;;;;;;;20.29;36.67;101468.59;5032303;28;19916;-50
2022/06/13 11:08:41;;;;;;;;;;;;;;;20.00;37.41;101487.16;5031486;28;19917;-50
2022/06/13 11:11:25;;;;;;;;;;;;;;;19.73;38.60;101476.03;5031982;28;20395;-51
2022/06/13 11:13:54;;;;;;;;;;;;;;;19.53;39.29;101479.53;5030712;28;20042;-50
2022/06/13 11:24:48;;;;;;;;;;;;;;;19.53;39.63;101491.06;5032981;28;19924;-50
2022/06/13 11:30:26;;;;;;;;;;;;;;;19.55;39.91;101485.59;5026395;28;19924;-50
2022/06/13 11:33:11;;;;;;;;;;;;;;;19.60;39.65;101473.56;5030839;28;19924;-51
2022/06/13 11:35:38;;;;;;;;;;;;;;;19.61;39.82;101477.06;5027288;28;19912;-50
2022/06/13 11:38:21;;;;;;;;;;;;;;;19.70;39.67;101481.63;5016787;28;20411;-51
2022/06/13 11:41:06;;;;;;;;;;;;;;;19.81;39.15;101472.72;5029341;28;20384;-50
2022/06/13 11:43:37;;;;;;;;;;;;;;;19.92;38.52;101477.13;5026606;28;19935;-51
2022/06/13 11:46:06;;;;;;;;;;;;;;;19.95;38.34;101474.22;5030502;28;19955;-52
2022/06/13 11:48:31;;;;;;;;;;;;;;;19.95;38.05;101471.53;5026075;28;19967;-51
2022/06/13 11:50:59;;;;;;;;;;;;;;;19.98;38.19;101462.41;5020901;28;19913;-51
2022/06/13 11:53:37;;;;;;;;;;;;;;;20.00;38.29;101481.81;5020008;28;19925;-52
2022/06/13 11:56:22;;;;;;;;;;;;;;;20.03;38.21;101489.56;5023921;28;20422;-50
2022/06/13 11:58:49;;;;;;;;;;;;;;;20.09;38.22;101487.22;5027441;28;19974;-50
2022/06/13 12:01:26;;;;;;;;;;;;;;;20.13;38.45;101482.44;5023928;28;19928;-51
2022/06/13 12:04:00;;;;;;;;;;;;;;;20.22;38.32;101486.16;5027443;28;19982;-50
2022/06/13 12:06:25;;;;;;;;;;;;;;;20.33;38.10;101477.19;5022629;28;19923;-50
2022/06/13 12:08:59;;;;;;;;;;;;;;;20.36;38.35;101485.78;5025840;28;20003;-51
2022/06/13 12:11:24;;;;;;;;;;;;;;;20.36;38.21;101477.75;5019968;28;19913;-52
2022/06/13 12:13:50;;;;;;;;;;;;;;;20.36;38.60;101492.97;5029626;28;20039;-51
2022/06/13 12:16:18;;;;;;;;;;;;;;;20.37;38.53;101484.81;5021030;28;20281;-52
2022/06/13 12:18:50;;;;;;;;;;;;;;;20.36;38.48;101480.44;5028713;28;19920;-51
2022/06/13 12:21:32;;;;;;;;;;;;;;;20.34;38.99;101487.78;5026509;28;19925;-51
2022/06/13 12:24:17;;;;;;;;;;;;;;;20.34;39.50;101493.13;5027311;28;19920;-51
2022/06/13 12:26:49;;;;;;;;;;;;;;;20.25;39.74;101493.91;5024955;28;19924;-52
2022/06/13 12:29:17;;;;;;;;;;;;;;;20.16;39.85;101479.50;5028872;28;20032;-51
2022/06/13 12:31:47;;;;;;;;;;;;;;;20.16;40.26;101486.69;5029378;28;19928;-51
2022/06/13 12:34:24;;;;;;;;;;;;;;;20.24;40.11;101481.53;5028942;28;20339;-53
2022/06/13 12:36:56;;;;;;;;;;;;;;;20.36;40.07;101490.28;5019917;28;19947;-50
2022/06/13 12:39:51;;;;;;;;;;;;;;;20.48;40.09;101483.84;5026254;28;19922;-51
2022/06/13 12:42:19;;;;;;;;;;;;;;;20.59;39.55;101501.63;5026630;28;19949;-50
2022/06/13 12:44:47;;;;;;;;;;;;;;;20.66;39.32;101496.59;5022257;28;20013;-51
2022/06/13 12:47:31;;;;;;;;;;;;;;;20.65;38.13;101519.78;5026570;28;19913;-54
2022/06/13 12:50:15;;;;;;;;;;;;;;;20.34;38.84;101503.81;5027298;28;20388;-51
2022/06/13 12:52:51;;;;;;;;;;;;;;;20.07;39.28;101497.19;5024574;28;19917;-50
2022/06/13 12:55:29;;;;;;;;;;;;;;;19.89;39.57;101514.81;5026437;28;20361;-50
2022/06/13 12:57:54;;;;;;;;;;;;;;;19.74;40.29;101500.91;5026404;28;19936;-52
2022/06/13 13:00:22;;;;;;;;;;;;;;;19.64;40.84;101496.34;5026269;28;20288;-50
2022/06/13 13:03:02;;;;;;;;;;;;;;;19.61;41.35;101496.59;5026406;28;19917;-51
2022/06/13 13:05:46;;;;;;;;;;;;;;;19.58;41.78;101494.19;5022705;28;19913;-51
2022/06/13 13:08:23;;;;;;;;;;;;;;;19.52;42.33;101489.34;5022898;28;19921;-54
2022/06/13 13:11:12;;;;;;;;;;;;;;;19.55;42.64;101497.13;5025075;28;19919;-53
2022/06/13 13:13:51;;;;;;;;;;;;;;;19.64;42.74;101488.34;5028820;28;19913;-51
2022/06/13 13:16:35;;;;;;;;;;;;;;;19.79;42.93;101490.69;5026760;28;19916;-52
2022/06/13 13:19:06;;;;;;;;;;;;;;;19.90;42.24;101500.47;5027461;28;19919;-50
2022/06/13 13:21:58;;;;;;;;;;;;;;;19.92;41.89;101503.84;5021420;28;20315;-50